Time;durP1;ratioP1;P1;durP2;ratioP2;P2;SDS_P1;SDS_P2;PMS_P1;PMS_P2;Temp;Humidity;BMP_temperature;BMP_pressure;BME280_temperature;BME280_humidity;BME280_pressure;Samples;Min_cycle;Max_cycle;Signal;HPM_P1;HPM_P2
2021/12/19 00:09:27;;;;;;;;;;;7.40;99.90;;;;;;5072278;28;19939;-59
2021/12/19 00:11:53;;;;;;;;;;;7.20;99.90;;;;;;5076696;28;19912;-59
2021/12/19 00:14:20;;;;;;;;;;;7.30;99.90;;;;;;5075761;28;19987;-58
2021/12/19 00:16:46;;;;;;;;;;;7.20;99.90;;;;;;5080106;28;20449;-60
2021/12/19 00:19:11;;;;;;;;;;;7.30;99.90;;;;;;5074448;28;19944;-58
2021/12/19 00:21:39;;;;;;;;;;;7.30;99.90;;;;;;5076055;28;19912;-59
2021/12/19 00:24:05;;;;;;;;;;;7.50;99.90;;;;;;5068410;28;19973;-59
2021/12/19 00:26:31;;;;;;;;;;;7.40;99.90;;;;;;5076601;28;20252;-59
2021/12/19 00:28:56;;;;;;;;;;;7.40;99.90;;;;;;5077618;28;19985;-58
2021/12/19 00:31:22;;;;;;;;;;;7.30;99.90;;;;;;5072624;28;19959;-58
2021/12/19 00:33:47;;;;;;;;;;;7.30;99.90;;;;;;5073005;28;20023;-58
2021/12/19 00:36:13;;;;;;;;;;;7.30;99.90;;;;;;5070114;28;20547;-58
2021/12/19 00:38:39;;;;;;;;;;;7.20;99.90;;;;;;5072409;28;19967;-59
2021/12/19 00:41:05;;;;;;;;;;;7.30;99.90;;;;;;5074304;28;19922;-59
2021/12/19 00:43:36;;;;;;;;;;;7.30;99.90;;;;;;5072936;28;20161;-59
2021/12/19 00:46:07;;;;;;;;;;;7.40;99.90;;;;;;5070408;28;19923;-59
2021/12/19 00:48:41;;;;;;;;;;;7.50;99.90;;;;;;5073303;28;19951;-59
2021/12/19 00:51:07;;;;;;;;;;;7.50;99.90;;;;;;5074457;28;19970;-58
2021/12/19 00:53:33;;;;;;;;;;;7.40;99.90;;;;;;5071818;28;20495;-59
2021/12/19 00:55:59;;;;;;;;;;;7.30;99.90;;;;;;5071855;28;20501;-59
2021/12/19 00:58:24;;;;;;;;;;;7.30;99.90;;;;;;5072431;28;20303;-59
2021/12/19 01:00:50;;;;;;;;;;;7.30;99.90;;;;;;5074440;28;19916;-60
2021/12/19 01:03:15;;;;;;;;;;;7.30;99.90;;;;;;5074036;28;19912;-59
2021/12/19 01:05:42;;;;;;;;;;;7.40;99.90;;;;;;5072886;28;19939;-59
2021/12/19 01:08:07;;;;;;;;;;;7.40;99.90;;;;;;5073353;28;19974;-59
2021/12/19 01:10:34;;;;;;;;;;;7.50;99.90;;;;;;5073597;28;20324;-59
2021/12/19 01:13:01;;;;;;;;;;;7.40;99.90;;;;;;5072963;28;19981;-59
2021/12/19 01:15:27;;;;;;;;;;;7.30;99.90;;;;;;5072545;28;20497;-60
2021/12/19 01:17:52;;;;;;;;;;;7.30;99.90;;;;;;5070887;28;19918;-58
2021/12/19 01:20:19;;;;;;;;;;;7.40;99.90;;;;;;5072504;28;19916;-59
2021/12/19 01:22:45;;;;;;;;;;;7.40;99.90;;;;;;5074438;28;19951;-58
2021/12/19 01:25:11;;;;;;;;;;;7.40;99.90;;;;;;5071934;28;19990;-59
2021/12/19 01:27:36;;;;;;;;;;;7.40;99.90;;;;;;5075416;28;20779;-58
2021/12/19 01:30:03;;;;;;;;;;;7.30;99.90;;;;;;5068484;28;20367;-58
2021/12/19 01:32:29;;;;;;;;;;;7.40;99.90;;;;;;5070399;28;19920;-59
2021/12/19 01:34:54;;;;;;;;;;;7.40;99.90;;;;;;5072867;28;19913;-59
2021/12/19 01:37:20;;;;;;;;;;;7.60;99.90;;;;;;5072170;28;20448;-59
2021/12/19 01:39:45;;;;;;;;;;;7.50;99.90;;;;;;5072351;28;19920;-59
2021/12/19 01:42:11;;;;;;;;;;;7.30;99.90;;;;;;5071440;28;19912;-59
2021/12/19 01:44:37;;;;;;;;;;;7.30;99.90;;;;;;5071273;28;20558;-59
2021/12/19 01:47:02;;;;;;;;;;;7.40;99.90;;;;;;5073661;28;19973;-59
2021/12/19 01:49:28;;;;;;;;;;;7.50;99.90;;;;;;5073572;28;19908;-59
2021/12/19 01:51:53;;;;;;;;;;;7.50;99.90;;;;;;5069365;28;20347;-59
2021/12/19 01:54:19;;;;;;;;;;;7.40;99.90;;;;;;5072336;28;19961;-59
2021/12/19 01:56:45;;;;;;;;;;;7.40;99.90;;;;;;5071115;28;20311;-59
2021/12/19 01:59:10;;;;;;;;;;;7.40;99.90;;;;;;5069125;28;19948;-58
2021/12/19 02:01:50;;;;;;;;;;;7.40;99.90;;;;;;5072997;28;19912;-59
2021/12/19 02:04:16;;;;;;;;;;;7.30;99.90;;;;;;5070837;28;19927;-59
2021/12/19 02:06:42;;;;;;;;;;;7.40;99.90;;;;;;5072368;28;19930;-60
2021/12/19 02:09:09;;;;;;;;;;;7.40;99.90;;;;;;5070640;28;19916;-59
2021/12/19 02:11:35;;;;;;;;;;;7.50;99.90;;;;;;5071963;28;19984;-58
2021/12/19 02:14:01;;;;;;;;;;;7.50;99.90;;;;;;5071285;28;19919;-59
2021/12/19 02:16:26;;;;;;;;;;;7.40;99.90;;;;;;5070248;28;19916;-58
2021/12/19 02:18:52;;;;;;;;;;;7.40;99.90;;;;;;5072498;28;20060;-59
2021/12/19 02:21:18;;;;;;;;;;;7.40;99.90;;;;;;5070237;28;19909;-59
2021/12/19 02:23:43;;;;;;;;;;;7.50;99.90;;;;;;5071080;28;19909;-58
2021/12/19 02:26:09;;;;;;;;;;;7.50;99.90;;;;;;5071927;28;19916;-59
2021/12/19 02:28:34;;;;;;;;;;;7.50;99.90;;;;;;5070823;28;20635;-58
2021/12/19 02:31:00;;;;;;;;;;;7.50;99.90;;;;;;5069586;28;19912;-59
2021/12/19 02:33:30;;;;;;;;;;;7.60;99.90;;;;;;5068750;28;19912;-59
2021/12/19 02:36:07;;;;;;;;;;;7.50;99.90;;;;;;5069425;28;19912;-59
2021/12/19 02:49:19;;;;;;;;;;;7.30;99.90;;;;;;5070265;28;20259;-59
2021/12/19 02:51:45;;;;;;;;;;;7.40;99.90;;;;;;5071173;28;19920;-59
2021/12/19 02:54:11;;;;;;;;;;;7.20;99.90;;;;;;5070138;28;20454;-59
2021/12/19 02:56:36;;;;;;;;;;;7.20;99.90;;;;;;5071033;28;20532;-59
2021/12/19 02:59:02;;;;;;;;;;;7.10;99.90;;;;;;5072083;28;19916;-59
2021/12/19 03:01:27;;;;;;;;;;;7.10;99.90;;;;;;5071095;28;19926;-57
2021/12/19 03:03:53;;;;;;;;;;;7.10;99.90;;;;;;5070950;28;19912;-58
2021/12/19 03:06:19;;;;;;;;;;;7.30;99.90;;;;;;5070159;28;19918;-58
2021/12/19 03:08:48;;;;;;;;;;;7.20;99.90;;;;;;5070120;28;19919;-60
2021/12/19 03:19:23;;;;;;;;;;;7.30;99.90;;;;;;5069978;28;19919;-58
2021/12/19 03:21:49;;;;;;;;;;;7.40;99.90;;;;;;5071909;28;20553;-59
2021/12/19 03:24:14;;;;;;;;;;;7.40;99.90;;;;;;5069741;28;19908;-58
2021/12/19 03:26:40;;;;;;;;;;;7.40;99.90;;;;;;5069547;28;19909;-59
2021/12/19 03:29:05;;;;;;;;;;;7.30;99.90;;;;;;5070136;28;20268;-58
2021/12/19 03:31:31;;;;;;;;;;;7.20;99.90;;;;;;5070198;28;19912;-59
2021/12/19 03:33:56;;;;;;;;;;;7.10;99.90;;;;;;5071733;28;19927;-58
2021/12/19 03:36:22;;;;;;;;;;;7.10;99.90;;;;;;5070646;28;20329;-58
2021/12/19 03:38:49;;;;;;;;;;;7.20;99.90;;;;;;5072719;28;20307;-58
2021/12/19 03:41:19;;;;;;;;;;;7.10;99.90;;;;;;5068550;28;19952;-58
2021/12/19 03:43:45;;;;;;;;;;;7.10;99.90;;;;;;5067821;28;19993;-58
2021/12/19 03:46:10;;;;;;;;;;;7.20;99.90;;;;;;5069219;28;19912;-59
2021/12/19 03:48:36;;;;;;;;;;;7.10;99.90;;;;;;5070131;28;19999;-58
2021/12/19 03:51:02;;;;;;;;;;;7.20;99.90;;;;;;5071935;28;20469;-58
2021/12/19 03:53:27;;;;;;;;;;;7.20;99.90;;;;;;5070549;28;19923;-59
2021/12/19 03:55:53;;;;;;;;;;;7.20;99.90;;;;;;5069421;28;19962;-59
2021/12/19 03:58:19;;;;;;;;;;;7.20;99.90;;;;;;5070170;28;19926;-58
2021/12/19 04:00:45;;;;;;;;;;;7.20;99.90;;;;;;5069139;28;19916;-58
2021/12/19 04:03:17;;;;;;;;;;;7.20;99.90;;;;;;5067636;28;19919;-57
2021/12/19 04:05:43;;;;;;;;;;;7.10;99.90;;;;;;5068771;28;19912;-59
2021/12/19 04:08:09;;;;;;;;;;;7.20;99.90;;;;;;5069774;28;19914;-59
2021/12/19 04:10:34;;;;;;;;;;;7.20;99.90;;;;;;5069960;28;19919;-58
2021/12/19 04:13:00;;;;;;;;;;;7.30;99.90;;;;;;5067231;28;19916;-58
2021/12/19 04:15:26;;;;;;;;;;;7.20;99.90;;;;;;5067815;28;19958;-58
2021/12/19 04:17:52;;;;;;;;;;;7.20;99.90;;;;;;5067167;28;19920;-59
2021/12/19 04:20:18;;;;;;;;;;;7.20;99.90;;;;;;5070676;28;19916;-58
2021/12/19 04:22:44;;;;;;;;;;;7.10;99.90;;;;;;5073397;28;20627;-58
2021/12/19 04:25:10;;;;;;;;;;;7.10;99.90;;;;;;5073481;28;19954;-58
2021/12/19 04:27:36;;;;;;;;;;;7.10;99.90;;;;;;5073540;28;19912;-58
2021/12/19 04:30:05;;;;;;;;;;;7.10;99.90;;;;;;5071078;28;19908;-58
2021/12/19 04:32:36;;;;;;;;;;;7.00;99.90;;;;;;5072344;28;19950;-59
2021/12/19 04:35:02;;;;;;;;;;;7.00;99.90;;;;;;5073799;28;19950;-59
2021/12/19 04:40:05;;;;;;;;;;;7.10;99.90;;;;;;5073484;28;20004;-59
2021/12/19 04:53:24;;;;;;;;;;;7.00;99.90;;;;;;5071874;28;20062;-58
2021/12/19 04:56:15;;;;;;;;;;;7.10;99.90;;;;;;5072874;28;20379;-58
2021/12/19 04:59:11;;;;;;;;;;;7.00;99.90;;;;;;5067530;28;19928;-57
2021/12/19 05:15:05;;;;;;;;;;;6.70;99.90;;;;;;5071632;28;19923;-59
2021/12/19 05:17:31;;;;;;;;;;;6.70;99.90;;;;;;5071983;28;20566;-57
2021/12/19 05:20:20;;;;;;;;;;;6.60;99.90;;;;;;5071594;28;19908;-58
2021/12/19 05:22:49;;;;;;;;;;;6.60;99.90;;;;;;5071985;28;19919;-59
2021/12/19 05:25:17;;;;;;;;;;;6.70;99.90;;;;;;5073010;28;19923;-58
2021/12/19 05:27:50;;;;;;;;;;;6.70;99.90;;;;;;5071925;28;19908;-58
2021/12/19 05:30:16;;;;;;;;;;;6.60;99.90;;;;;;5070725;28;19921;-58
2021/12/19 05:32:42;;;;;;;;;;;6.60;99.90;;;;;;5069928;28;19919;-58
2021/12/19 05:35:09;;;;;;;;;;;6.70;99.90;;;;;;5069914;28;19912;-58
2021/12/19 05:45:58;;;;;;;;;;;6.80;99.90;;;;;;5072221;28;19965;-61
2021/12/19 05:48:23;;;;;;;;;;;6.80;99.90;;;;;;5072417;28;19917;-60
2021/12/19 05:50:49;;;;;;;;;;;6.70;99.90;;;;;;5069642;28;19912;-59
2021/12/19 05:53:15;;;;;;;;;;;6.70;99.90;;;;;;5070488;28;19912;-60
2021/12/19 05:55:40;;;;;;;;;;;6.60;99.90;;;;;;5071383;28;20375;-60
2021/12/19 05:58:06;;;;;;;;;;;6.60;99.90;;;;;;5068556;28;19930;-60
2021/12/19 06:00:32;;;;;;;;;;;6.50;99.90;;;;;;5072124;28;19916;-61
2021/12/19 06:02:58;;;;;;;;;;;6.50;99.90;;;;;;5069213;28;19923;-60
2021/12/19 06:05:24;;;;;;;;;;;6.50;99.90;;;;;;5069660;28;19908;-61
2021/12/19 06:07:49;;;;;;;;;;;6.60;99.90;;;;;;5069930;28;19972;-62
2021/12/19 06:10:15;;;;;;;;;;;6.60;99.90;;;;;;5070457;28;19931;-60
2021/12/19 06:12:41;;;;;;;;;;;6.50;99.90;;;;;;5070005;28;19916;-61
2021/12/19 06:15:09;;;;;;;;;;;6.60;99.90;;;;;;5071551;28;19969;-60
2021/12/19 06:17:34;;;;;;;;;;;6.70;99.90;;;;;;5072093;28;20651;-60
2021/12/19 06:20:00;;;;;;;;;;;6.60;99.90;;;;;;5069516;28;19912;-61
2021/12/19 06:22:25;;;;;;;;;;;6.50;99.90;;;;;;5070051;28;19923;-60
2021/12/19 06:24:51;;;;;;;;;;;6.50;99.90;;;;;;5072775;28;19974;-58
2021/12/19 06:27:16;;;;;;;;;;;6.50;99.90;;;;;;5067697;28;19908;-58
2021/12/19 06:29:42;;;;;;;;;;;6.60;99.90;;;;;;5070301;28;19916;-58
2021/12/19 06:32:07;;;;;;;;;;;6.50;99.90;;;;;;5069338;28;20112;-58
2021/12/19 06:34:33;;;;;;;;;;;6.60;99.90;;;;;;5069390;28;19908;-58
2021/12/19 06:36:58;;;;;;;;;;;6.50;99.90;;;;;;5069390;28;19927;-58
2021/12/19 06:39:24;;;;;;;;;;;6.60;99.90;;;;;;5070701;28;20057;-59
2021/12/19 06:41:49;;;;;;;;;;;6.60;99.90;;;;;;5070868;28;19913;-58
2021/12/19 06:44:15;;;;;;;;;;;6.60;99.90;;;;;;5067854;28;19924;-58
2021/12/19 06:46:41;;;;;;;;;;;6.60;99.90;;;;;;5070698;28;19916;-59
2021/12/19 06:49:06;;;;;;;;;;;6.70;99.90;;;;;;5069709;28;19942;-58
2021/12/19 06:51:32;;;;;;;;;;;6.80;99.90;;;;;;5069108;28;19924;-58
2021/12/19 06:53:57;;;;;;;;;;;6.80;99.90;;;;;;5069229;28;19923;-58
2021/12/19 06:56:23;;;;;;;;;;;6.90;99.90;;;;;;5069340;28;19927;-57
2021/12/19 06:58:48;;;;;;;;;;;6.80;99.90;;;;;;5067213;28;19942;-59
2021/12/19 07:01:14;;;;;;;;;;;6.80;99.90;;;;;;5069671;28;19931;-58
2021/12/19 07:03:39;;;;;;;;;;;6.80;99.90;;;;;;5070893;28;19916;-59
2021/12/19 07:06:05;;;;;;;;;;;6.90;99.90;;;;;;5071002;28;19962;-59
2021/12/19 07:08:30;;;;;;;;;;;6.90;99.90;;;;;;5070986;28;20276;-58
2021/12/19 07:10:56;;;;;;;;;;;6.90;99.90;;;;;;5071009;28;19926;-58
2021/12/19 07:13:21;;;;;;;;;;;6.90;99.90;;;;;;5067168;28;19984;-57
2021/12/19 07:15:48;;;;;;;;;;;6.80;99.90;;;;;;5069743;28;19922;-59
2021/12/19 07:18:13;;;;;;;;;;;6.90;99.90;;;;;;5072545;28;20616;-58
2021/12/19 07:20:42;;;;;;;;;;;6.80;99.90;;;;;;5071267;28;20007;-59
2021/12/19 07:23:12;;;;;;;;;;;6.90;99.90;;;;;;5069940;28;19923;-58
2021/12/19 07:25:38;;;;;;;;;;;7.00;99.90;;;;;;5086529;28;19962;-59
2021/12/19 07:28:03;;;;;;;;;;;7.00;99.90;;;;;;5069200;28;19925;-61
2021/12/19 07:30:30;;;;;;;;;;;6.90;99.90;;;;;;5070984;28;19916;-63
2021/12/19 07:32:57;;;;;;;;;;;6.80;99.90;;;;;;5067709;28;19919;-62
2021/12/19 07:35:23;;;;;;;;;;;6.80;99.90;;;;;;5071383;28;19927;-61
2021/12/19 07:37:50;;;;;;;;;;;6.80;99.90;;;;;;5068120;28;20476;-62
2021/12/19 07:40:17;;;;;;;;;;;6.80;99.90;;;;;;5069028;28;19912;-62
2021/12/19 07:42:44;;;;;;;;;;;6.80;99.90;;;;;;5069901;28;19912;-61
2021/12/19 07:45:11;;;;;;;;;;;6.80;99.90;;;;;;5068652;28;20613;-62
2021/12/19 07:47:39;;;;;;;;;;;6.90;99.90;;;;;;5068208;28;19952;-62
2021/12/19 07:50:07;;;;;;;;;;;6.80;99.90;;;;;;5066561;28;20454;-61
2021/12/19 07:52:32;;;;;;;;;;;6.90;99.90;;;;;;5071001;28;20334;-62
2021/12/19 07:54:58;;;;;;;;;;;6.80;99.90;;;;;;5069428;28;19966;-62
2021/12/19 07:57:23;;;;;;;;;;;6.80;99.90;;;;;;5075017;28;19951;-62
2021/12/19 07:59:49;;;;;;;;;;;6.80;99.90;;;;;;5072842;28;19912;-61
2021/12/19 08:02:14;;;;;;;;;;;6.70;99.90;;;;;;5071671;28;19916;-62
2021/12/19 08:04:40;;;;;;;;;;;6.70;99.90;;;;;;5074116;28;20335;-61
2021/12/19 08:07:08;;;;;;;;;;;6.90;99.90;;;;;;5073250;28;19920;-62
2021/12/19 08:09:39;;;;;;;;;;;7.00;99.90;;;;;;5072575;28;20035;-61
2021/12/19 08:12:04;;;;;;;;;;;6.80;99.90;;;;;;5072936;28;20401;-62
2021/12/19 08:14:30;;;;;;;;;;;6.70;99.90;;;;;;5070162;28;19916;-63
2021/12/19 08:16:56;;;;;;;;;;;6.80;99.90;;;;;;5071344;28;19967;-62
2021/12/19 08:19:21;;;;;;;;;;;6.90;99.90;;;;;;5069343;28;19915;-62
2021/12/19 08:21:47;;;;;;;;;;;6.90;99.90;;;;;;5072108;28;19912;-62
2021/12/19 08:24:13;;;;;;;;;;;6.80;99.90;;;;;;5071247;28;19912;-61
2021/12/19 08:26:40;;;;;;;;;;;6.70;99.90;;;;;;5072532;28;20639;-62
2021/12/19 08:29:06;;;;;;;;;;;6.70;99.90;;;;;;5072552;28;19940;-62
2021/12/19 08:31:31;;;;;;;;;;;6.80;99.90;;;;;;5071709;28;20192;-61
2021/12/19 08:33:58;;;;;;;;;;;6.90;99.90;;;;;;5072693;28;19916;-62
2021/12/19 08:36:24;;;;;;;;;;;7.10;99.90;;;;;;5072422;28;20336;-62
2021/12/19 08:38:49;;;;;;;;;;;7.00;99.90;;;;;;5070075;28;19923;-63
2021/12/19 08:41:15;;;;;;;;;;;7.00;99.90;;;;;;5070119;28;19915;-61
2021/12/19 08:43:40;;;;;;;;;;;7.00;99.90;;;;;;5072759;28;20356;-62
2021/12/19 08:46:09;;;;;;;;;;;7.10;99.90;;;;;;5072558;28;19915;-61
2021/12/19 08:48:34;;;;;;;;;;;7.00;99.90;;;;;;5070801;28;19920;-62
2021/12/19 08:51:00;;;;;;;;;;;7.10;99.90;;;;;;5072937;28;20754;-60
2021/12/19 08:53:26;;;;;;;;;;;7.10;99.90;;;;;;5070998;28;19969;-61
2021/12/19 08:55:51;;;;;;;;;;;7.00;99.90;;;;;;5071770;28;19938;-61
2021/12/19 08:58:17;;;;;;;;;;;7.00;99.90;;;;;;5069996;28;19981;-62
2021/12/19 09:00:42;;;;;;;;;;;7.00;99.90;;;;;;5074378;28;20252;-61
2021/12/19 09:03:08;;;;;;;;;;;7.00;99.90;;;;;;5067902;28;20011;-65
2021/12/19 09:05:34;;;;;;;;;;;7.10;99.90;;;;;;5069603;28;20371;-65
2021/12/19 09:07:59;;;;;;;;;;;7.20;99.90;;;;;;5066805;28;19958;-63
2021/12/19 09:10:25;;;;;;;;;;;7.00;99.90;;;;;;5072281;28;19923;-65
2021/12/19 09:12:51;;;;;;;;;;;6.90;99.90;;;;;;5071006;28;20378;-66
2021/12/19 09:15:17;;;;;;;;;;;6.90;99.90;;;;;;5070173;28;20208;-63
2021/12/19 09:17:43;;;;;;;;;;;7.00;99.90;;;;;;5070488;28;19927;-64
2021/12/19 09:20:09;;;;;;;;;;;6.80;99.90;;;;;;5068740;28;20389;-64
2021/12/19 09:22:34;;;;;;;;;;;6.90;99.90;;;;;;5071953;28;19937;-65
2021/12/19 09:25:00;;;;;;;;;;;7.00;99.90;;;;;;5072314;28;19912;-63
2021/12/19 09:27:26;;;;;;;;;;;7.10;99.90;;;;;;5070077;28;20337;-63
2021/12/19 09:29:52;;;;;;;;;;;7.20;99.90;;;;;;5067945;28;19916;-63
2021/12/19 09:32:18;;;;;;;;;;;7.00;99.90;;;;;;5069887;28;19919;-65
2021/12/19 09:34:43;;;;;;;;;;;7.10;99.90;;;;;;5069355;28;19912;-65
2021/12/19 09:37:09;;;;;;;;;;;7.10;99.90;;;;;;5070423;28;20489;-63
2021/12/19 09:39:34;;;;;;;;;;;7.10;99.90;;;;;;5070981;28;19948;-62
2021/12/19 09:42:07;;;;;;;;;;;7.00;99.90;;;;;;5068950;28;20328;-64
2021/12/19 09:44:33;;;;;;;;;;;7.00;99.90;;;;;;5069830;28;19912;-64
2021/12/19 09:46:59;;;;;;;;;;;7.10;99.90;;;;;;5072043;28;20357;-64
2021/12/19 09:49:24;;;;;;;;;;;7.10;99.90;;;;;;5070413;28;19961;-64
2021/12/19 09:51:50;;;;;;;;;;;7.10;99.90;;;;;;5066840;28;19919;-65
2021/12/19 09:54:16;;;;;;;;;;;7.20;99.90;;;;;;5069567;28;20334;-64
2021/12/19 09:56:42;;;;;;;;;;;6.90;99.90;;;;;;5072240;28;19916;-64
2021/12/19 09:59:12;;;;;;;;;;;6.90;99.90;;;;;;5067568;28;20321;-64
2021/12/19 10:01:38;;;;;;;;;;;7.00;99.90;;;;;;5069684;28;20420;-65
2021/12/19 10:04:04;;;;;;;;;;;7.20;99.90;;;;;;5068583;28;20136;-65
2021/12/19 10:06:31;;;;;;;;;;;7.10;99.90;;;;;;5070245;28;19912;-63
2021/12/19 10:09:17;;;;;;;;;;;7.00;99.90;;;;;;5069668;28;19923;-64
2021/12/19 10:12:24;;;;;;;;;;;7.00;99.90;;;;;;5068182;28;20417;-65
2021/12/19 10:14:34;;;;;;;;;;;7.10;99.90;;;;;;5071582;28;19951;-65
2021/12/19 10:17:01;;;;;;;;;;;7.20;99.90;;;;;;5066812;28;19926;-64
2021/12/19 10:19:45;;;;;;;;;;;7.10;99.90;;;;;;5069897;28;20005;-65
2021/12/19 10:22:29;;;;;;;;;;;7.00;99.90;;;;;;5068753;28;20007;-65
2021/12/19 10:24:56;;;;;;;;;;;6.90;99.90;;;;;;5066093;28;20456;-64
2021/12/19 10:27:31;;;;;;;;;;;6.90;99.90;;;;;;5069004;28;19912;-65
2021/12/19 10:29:57;;;;;;;;;;;7.00;99.90;;;;;;5068838;28;20523;-65
2021/12/19 10:32:23;;;;;;;;;;;7.10;99.90;;;;;;5068556;28;19920;-64
2021/12/19 10:34:48;;;;;;;;;;;7.00;99.90;;;;;;5067476;28;19919;-65
2021/12/19 10:37:32;;;;;;;;;;;6.90;99.90;;;;;;5066827;28;19922;-63
2021/12/19 10:40:02;;;;;;;;;;;7.00;99.90;;;;;;5067698;28;19980;-65
2021/12/19 10:42:34;;;;;;;;;;;7.10;99.90;;;;;;5067066;28;20497;-66
2021/12/19 10:47:43;;;;;;;;;;;7.10;99.90;;;;;;5069705;28;19946;-64
2021/12/19 10:50:09;;;;;;;;;;;7.00;99.90;;;;;;5069723;28;20576;-66
2021/12/19 10:52:38;;;;;;;;;;;6.90;99.90;;;;;;5069415;28;19984;-66
2021/12/19 10:55:06;;;;;;;;;;;7.10;99.90;;;;;;5068986;28;19908;-64
2021/12/19 10:57:35;;;;;;;;;;;7.00;99.90;;;;;;5069542;28;19923;-64
2021/12/19 11:00:04;;;;;;;;;;;7.10;99.90;;;;;;5085119;28;19912;-66
2021/12/19 11:02:42;;;;;;;;;;;7.00;99.90;;;;;;5067298;28;20327;-66
2021/12/19 11:05:26;;;;;;;;;;;7.10;99.90;;;;;;5068946;28;19919;-66
2021/12/19 11:07:59;;;;;;;;;;;7.10;99.90;;;;;;5069620;28;19916;-64
2021/12/19 11:10:25;;;;;;;;;;;7.10;99.90;;;;;;5069221;28;19931;-66
2021/12/19 11:13:11;;;;;;;;;;;7.00;99.90;;;;;;5068077;28;20470;-63
2021/12/19 11:15:37;;;;;;;;;;;7.10;99.90;;;;;;5069391;28;19916;-65
2021/12/19 11:18:03;;;;;;;;;;;7.20;99.90;;;;;;5066338;28;19939;-64
2021/12/19 11:20:28;;;;;;;;;;;7.30;99.90;;;;;;5068617;28;19917;-64
2021/12/19 11:22:54;;;;;;;;;;;7.10;99.90;;;;;;5065214;28;19923;-64
2021/12/19 11:25:20;;;;;;;;;;;7.10;99.90;;;;;;5069253;28;19916;-66
2021/12/19 11:27:46;;;;;;;;;;;7.10;99.90;;;;;;5067816;28;19935;-66
2021/12/19 11:30:14;;;;;;;;;;;7.20;99.90;;;;;;5069852;28;19913;-65
2021/12/19 11:33:09;;;;;;;;;;;7.10;99.90;;;;;;5074741;28;19916;-66
2021/12/19 11:35:36;;;;;;;;;;;7.20;99.90;;;;;;5071563;28;19971;-64
2021/12/19 11:38:04;;;;;;;;;;;7.10;99.90;;;;;;5072161;28;19916;-66
2021/12/19 11:40:36;;;;;;;;;;;7.00;99.90;;;;;;5071953;28;19913;-64
2021/12/19 11:43:05;;;;;;;;;;;7.10;99.90;;;;;;5072610;28;20523;-67
2021/12/19 11:45:35;;;;;;;;;;;6.90;99.90;;;;;;5072953;28;20314;-63
2021/12/19 11:48:10;;;;;;;;;;;6.90;99.90;;;;;;5074298;28;20047;-65
2021/12/19 11:50:59;;;;;;;;;;;6.90;99.90;;;;;;5068536;28;20351;-66
2021/12/19 11:53:35;;;;;;;;;;;6.80;99.90;;;;;;5069202;28;20932;-64
2021/12/19 11:56:09;;;;;;;;;;;6.90;99.90;;;;;;5071601;28;19919;-63
2021/12/19 11:58:42;;;;;;;;;;;6.90;99.90;;;;;;5070073;28;19989;-65
2021/12/19 12:01:12;;;;;;;;;;;7.00;99.90;;;;;;5068089;28;19915;-66
2021/12/19 12:03:39;;;;;;;;;;;6.90;99.90;;;;;;5070476;28;20287;-66
2021/12/19 12:06:14;;;;;;;;;;;7.10;99.90;;;;;;5069053;28;19916;-66
2021/12/19 12:08:39;;;;;;;;;;;6.90;99.90;;;;;;5071901;28;19951;-64
2021/12/19 12:11:05;;;;;;;;;;;7.00;99.90;;;;;;5071393;28;20455;-66
2021/12/19 12:13:34;;;;;;;;;;;7.00;99.90;;;;;;5071778;28;20502;-65
2021/12/19 12:16:30;;;;;;;;;;;7.00;99.90;;;;;;5070140;28;20148;-63
2021/12/19 12:18:59;;;;;;;;;;;7.00;99.90;;;;;;5070818;28;19923;-65
2021/12/19 12:21:29;;;;;;;;;;;7.00;99.90;;;;;;5069165;28;19951;-65
2021/12/19 12:24:00;;;;;;;;;;;7.10;99.90;;;;;;5072337;28;19916;-65
2021/12/19 12:26:34;;;;;;;;;;;7.20;99.90;;;;;;5074678;28;20582;-64
2021/12/19 12:28:59;;;;;;;;;;;7.20;99.90;;;;;;5069429;28;20390;-64
2021/12/19 12:31:25;;;;;;;;;;;7.30;99.90;;;;;;5069896;28;20032;-63
2021/12/19 12:33:51;;;;;;;;;;;7.30;99.90;;;;;;5071051;28;20600;-66
2021/12/19 12:36:17;;;;;;;;;;;7.30;99.90;;;;;;5072450;28;20018;-65
2021/12/19 12:38:49;;;;;;;;;;;7.30;99.90;;;;;;5067220;28;20257;-65
2021/12/19 12:41:47;;;;;;;;;;;7.20;99.90;;;;;;5070060;28;20275;-66
2021/12/19 12:44:14;;;;;;;;;;;7.30;99.90;;;;;;5070301;28;19994;-65
2021/12/19 12:46:41;;;;;;;;;;;7.40;99.90;;;;;;5071347;28;19916;-63
2021/12/19 12:49:32;;;;;;;;;;;7.40;99.90;;;;;;5070093;28;20275;-65
2021/12/19 12:51:59;;;;;;;;;;;7.20;99.90;;;;;;5070087;28;19920;-66
2021/12/19 12:54:34;;;;;;;;;;;7.20;99.90;;;;;;5071855;28;19923;-66
2021/12/19 12:57:00;;;;;;;;;;;7.20;99.90;;;;;;5070639;28;19927;-65
2021/12/19 12:59:30;;;;;;;;;;;7.30;99.90;;;;;;5072243;28;20008;-65
2021/12/19 13:02:10;;;;;;;;;;;7.20;99.90;;;;;;5068378;28;19916;-66
2021/12/19 13:04:36;;;;;;;;;;;7.10;99.90;;;;;;5073455;28;19912;-64
2021/12/19 13:07:03;;;;;;;;;;;7.10;99.90;;;;;;5069746;28;20382;-63
2021/12/19 13:09:33;;;;;;;;;;;7.20;99.90;;;;;;5073863;28;20011;-64
2021/12/19 13:12:01;;;;;;;;;;;7.20;99.90;;;;;;5069548;28;19947;-64
2021/12/19 13:14:27;;;;;;;;;;;7.20;99.90;;;;;;5070512;28;20274;-65
2021/12/19 13:16:54;;;;;;;;;;;7.30;99.90;;;;;;5071379;28;19993;-65
2021/12/19 13:19:39;;;;;;;;;;;7.30;99.90;;;;;;5071598;28;20999;-65
2021/12/19 13:22:05;;;;;;;;;;;7.30;99.90;;;;;;5072894;28;19928;-65
2021/12/19 13:24:34;;;;;;;;;;;7.30;99.90;;;;;;5072719;28;19948;-65
2021/12/19 13:27:03;;;;;;;;;;;7.30;99.90;;;;;;5073531;28;19912;-64
2021/12/19 13:29:29;;;;;;;;;;;7.40;99.90;;;;;;5070715;28;19916;-65
2021/12/19 13:32:14;;;;;;;;;;;7.40;99.90;;;;;;5070778;28;19999;-66
2021/12/19 13:34:40;;;;;;;;;;;7.30;99.90;;;;;;5070151;28;20348;-65
2021/12/19 13:37:05;;;;;;;;;;;7.40;99.90;;;;;;5070680;28;20018;-66
2021/12/19 13:39:31;;;;;;;;;;;7.30;99.90;;;;;;5069739;28;19912;-63
2021/12/19 13:42:05;;;;;;;;;;;7.40;99.90;;;;;;5070255;28;20158;-66
2021/12/19 13:44:31;;;;;;;;;;;7.40;99.90;;;;;;5069664;28;19916;-66
2021/12/19 13:46:56;;;;;;;;;;;7.40;99.90;;;;;;5072230;28;19923;-64
2021/12/19 13:49:22;;;;;;;;;;;7.30;99.90;;;;;;5071657;28;19917;-66
2021/12/19 13:51:47;;;;;;;;;;;7.20;99.90;;;;;;5069350;28;19927;-65
2021/12/19 13:54:13;;;;;;;;;;;7.20;99.90;;;;;;5067598;28;19919;-65
2021/12/19 13:56:38;;;;;;;;;;;7.10;99.90;;;;;;5068817;28;19920;-65
2021/12/19 13:59:24;;;;;;;;;;;7.10;99.90;;;;;;5059198;28;20020;-62
2021/12/19 14:01:50;;;;;;;;;;;7.10;99.90;;;;;;5080017;28;19924;-65
2021/12/19 14:04:19;;;;;;;;;;;7.20;99.90;;;;;;5069708;28;19912;-64
2021/12/19 14:06:46;;;;;;;;;;;7.20;99.90;;;;;;5069519;28;20392;-63
2021/12/19 14:09:17;;;;;;;;;;;7.20;99.90;;;;;;5071475;28;19912;-66
2021/12/19 14:11:44;;;;;;;;;;;7.10;99.90;;;;;;5069242;28;19920;-66
2021/12/19 14:14:24;;;;;;;;;;;7.10;99.90;;;;;;5068811;28;20390;-64
2021/12/19 14:16:56;;;;;;;;;;;7.10;99.90;;;;;;5071497;28;20038;-65
2021/12/19 14:19:23;;;;;;;;;;;7.00;99.90;;;;;;5066089;28;20264;-65
2021/12/19 14:21:50;;;;;;;;;;;7.00;99.90;;;;;;5068310;28;20371;-65
2021/12/19 14:24:17;;;;;;;;;;;7.00;99.90;;;;;;5069278;28;19921;-64
2021/12/19 14:26:45;;;;;;;;;;;7.10;99.90;;;;;;5068969;28;20467;-66
2021/12/19 14:29:19;;;;;;;;;;;6.90;99.90;;;;;;5068907;28;20387;-66
2021/12/19 14:31:53;;;;;;;;;;;6.90;99.90;;;;;;5070274;28;20920;-63
2021/12/19 14:34:37;;;;;;;;;;;7.00;99.90;;;;;;5067102;28;20333;-65
2021/12/19 14:37:16;;;;;;;;;;;7.00;99.90;;;;;;5069478;28;20413;-66
2021/12/19 14:39:53;;;;;;;;;;;6.90;99.90;;;;;;5070446;28;19919;-64
2021/12/19 14:42:19;;;;;;;;;;;6.90;99.90;;;;;;5067853;28;20030;-66
2021/12/19 14:45:04;;;;;;;;;;;6.90;99.90;;;;;;5067260;28;20427;-63
2021/12/19 14:47:41;;;;;;;;;;;6.90;99.90;;;;;;5069562;28;19989;-66
2021/12/19 14:50:11;;;;;;;;;;;6.90;99.90;;;;;;5066318;28;20383;-64
2021/12/19 14:52:36;;;;;;;;;;;7.00;99.90;;;;;;5067502;28;19920;-64
2021/12/19 14:55:12;;;;;;;;;;;7.00;99.90;;;;;;5067486;28;19919;-66
2021/12/19 14:57:38;;;;;;;;;;;7.10;99.90;;;;;;5067043;28;20393;-66
2021/12/19 15:00:04;;;;;;;;;;;7.10;99.90;;;;;;5069298;28;19912;-67
2021/12/19 15:02:30;;;;;;;;;;;7.00;99.90;;;;;;5066579;28;20422;-66
2021/12/19 15:04:55;;;;;;;;;;;7.10;99.90;;;;;;5068462;28;19970;-66
2021/12/19 15:07:24;;;;;;;;;;;7.10;99.90;;;;;;5067916;28;20492;-65
2021/12/19 15:09:50;;;;;;;;;;;7.20;99.90;;;;;;5069924;28;20397;-64
2021/12/19 15:12:16;;;;;;;;;;;7.30;99.90;;;;;;5067930;28;19912;-67
2021/12/19 15:14:42;;;;;;;;;;;7.30;99.90;;;;;;5068160;28;19969;-66
2021/12/19 15:17:07;;;;;;;;;;;7.30;99.90;;;;;;5070613;28;19920;-64
2021/12/19 15:19:33;;;;;;;;;;;7.20;99.90;;;;;;5067772;28;19923;-64
2021/12/19 15:21:59;;;;;;;;;;;7.10;99.90;;;;;;5068251;28;19921;-64
2021/12/19 15:24:24;;;;;;;;;;;7.00;99.90;;;;;;5064909;28;19927;-64
2021/12/19 15:26:49;;;;;;;;;;;6.90;99.90;;;;;;5069260;28;20306;-65
2021/12/19 15:29:15;;;;;;;;;;;6.90;99.90;;;;;;5067459;28;19913;-64
2021/12/19 15:31:41;;;;;;;;;;;7.00;99.90;;;;;;5066574;28;20428;-64
2021/12/19 15:34:06;;;;;;;;;;;7.10;99.90;;;;;;5068268;28;19912;-65
2021/12/19 15:36:32;;;;;;;;;;;6.90;99.90;;;;;;5064959;28;20367;-65
2021/12/19 15:38:58;;;;;;;;;;;6.80;99.90;;;;;;5068652;28;19920;-65
2021/12/19 15:41:24;;;;;;;;;;;6.80;99.90;;;;;;5065779;28;20479;-64